Time;durP1;ratioP1;P1;durP2;ratioP2;P2;SDS_P1;SDS_P2;PMS_P1;PMS_P2;Temp;Humidity;BMP_temperature;BMP_pressure;BME280_temperature;BME280_humidity;BME280_pressure;Samples;Min_cycle;Max_cycle;Signal;HPM_P1;HPM_P2
2022/09/04 00:01:04;;;;;;;19.35;10.00;;;;;;;12.24;70.82;100611.42;2019226;88;32928;-70
2022/09/04 00:04:41;;;;;;;14.23;8.98;;;;;;;12.23;70.61;100620.42;2019002;88;33042;-71
2022/09/04 00:08:01;;;;;;;16.17;9.90;;;;;;;12.22;70.62;100620.03;2019349;88;29401;-71
2022/09/04 00:11:30;;;;;;;14.65;9.88;;;;;;;12.20;70.81;100618.78;2019889;88;27747;-71
2022/09/04 00:14:42;;;;;;;17.12;9.83;;;;;;;12.18;70.89;100612.61;2019752;86;28691;-73
2022/09/04 00:17:52;;;;;;;19.77;10.60;;;;;;;12.15;70.88;100615.45;2024364;87;31255;-74
2022/09/04 00:21:20;;;;;;;23.35;9.98;;;;;;;12.13;70.88;100618.69;2029889;87;33006;-72
2022/09/04 00:24:26;;;;;;;14.28;10.25;;;;;;;12.10;71.11;100621.52;1997889;88;29127;-72
2022/09/04 00:27:32;;;;;;;16.85;10.03;;;;;;;12.07;71.26;100617.67;1997879;89;27708;-73
2022/09/04 00:30:35;;;;;;;14.93;10.20;;;;;;;12.04;71.08;100617.83;1998131;89;28721;-72
2022/09/04 00:34:00;;;;;;;16.12;10.00;;;;;;;12.00;71.13;100633.20;1997959;89;31409;-71
2022/09/04 00:37:05;;;;;;;13.90;9.90;;;;;;;11.96;71.50;100633.80;1997742;88;33329;-72
2022/09/04 00:40:11;;;;;;;14.33;9.73;;;;;;;11.93;71.58;100632.61;1997904;89;29334;-72
2022/09/04 00:43:44;;;;;;;18.00;10.43;;;;;;;11.92;71.63;100632.70;1969036;89;27916;-72
2022/09/04 00:47:04;;;;;;;15.20;10.05;;;;;;;11.88;71.82;100641.39;1997761;89;29066;-70
2022/09/04 00:50:39;;;;;;;15.58;9.33;;;;;;;11.85;71.77;100643.73;1997861;88;31414;-73
2022/09/04 00:54:07;;;;;;;16.27;9.50;;;;;;;11.82;71.87;100644.36;1956762;90;33518;-72
2022/09/04 00:57:43;;;;;;;17.35;9.58;;;;;;;11.80;71.90;100653.84;1958503;90;30476;-73
2022/09/04 01:00:46;;;;;;;15.95;10.55;;;;;;;11.76;72.08;100647.34;1960037;90;27890;-71
2022/09/04 01:04:15;;;;;;;14.00;9.73;;;;;;;11.72;72.17;100657.36;1959017;90;28683;-72
2022/09/04 01:07:55;;;;;;;12.90;9.08;;;;;;;11.69;72.10;100650.80;1959333;90;32331;-72
2022/09/04 01:11:28;;;;;;;16.35;10.72;;;;;;;11.67;72.21;100650.00;1973766;90;33712;-71
2022/09/04 01:14:47;;;;;;;13.95;10.40;;;;;;;11.63;72.25;100652.45;1974431;90;29392;-72
2022/09/04 01:18:20;;;;;;;13.30;9.18;;;;;;;11.62;72.63;100650.72;1974777;88;27954;-72
2022/09/04 01:21:29;;;;;;;16.60;10.58;;;;;;;11.61;72.65;100653.85;1975210;90;28140;-71
2022/09/04 01:25:02;;;;;;;14.58;9.88;;;;;;;11.56;72.97;100647.86;1944343;90;31640;-71
2022/09/04 01:28:17;;;;;;;12.03;9.88;;;;;;;11.54;72.83;100653.77;1905100;93;33420;-72
2022/09/04 01:31:29;;;;;;;13.68;10.50;;;;;;;11.52;72.83;100663.21;2033230;87;30169;-73
2022/09/04 01:34:44;;;;;;;12.00;9.13;;;;;;;11.51;73.26;100664.64;2035607;87;27505;-75
2022/09/04 01:38:08;;;;;;;11.57;9.35;;;;;;;11.51;73.46;100665.98;2035347;87;28719;-74
2022/09/04 01:41:20;;;;;;;19.40;9.93;;;;;;;11.50;73.68;100666.92;2035063;86;30928;-74
2022/09/04 01:44:22;;;;;;;15.68;9.60;;;;;;;11.50;73.92;100663.75;2035316;87;32880;-72
2022/09/04 01:47:46;;;;;;;13.08;10.10;;;;;;;11.51;73.97;100668.66;2035092;87;29736;-74
2022/09/04 01:50:49;;;;;;;11.78;8.88;;;;;;;11.49;74.17;100663.84;2035204;87;27678;-74
2022/09/04 01:53:59;;;;;;;13.50;8.55;;;;;;;11.47;73.94;100662.58;2039948;86;28664;-73
2022/09/04 01:57:21;;;;;;;13.95;9.33;;;;;;;11.44;74.18;100663.18;1989628;89;31607;-73
2022/09/04 02:00:24;;;;;;;16.73;9.88;;;;;;;11.42;74.27;100661.06;1990306;89;33390;-73
2022/09/04 02:03:59;;;;;;;14.78;9.13;;;;;;;11.37;74.29;100652.76;1990326;89;30463;-72
2022/09/04 02:07:22;;;;;;;11.83;9.20;;;;;;;11.36;74.29;100651.47;1964798;90;28273;-67
2022/09/04 02:10:56;;;;;;;13.72;9.23;;;;;;;11.34;74.66;100648.88;1966263;90;29075;-75
2022/09/04 02:14:26;;;;;;;14.53;9.48;;;;;;;11.35;74.70;100650.62;1987119;89;31093;-74
2022/09/04 02:17:44;;;;;;;11.53;9.43;;;;;;;11.33;74.56;100655.18;1988665;88;33922;-73
2022/09/04 02:21:02;;;;;;;13.55;9.30;;;;;;;11.32;74.54;100658.80;1989666;88;29988;-74
2022/09/04 02:24:24;;;;;;;15.68;9.75;;;;;;;11.30;74.69;100658.00;1928723;92;27760;-73
2022/09/04 02:27:51;;;;;;;12.82;9.05;;;;;;;11.28;74.86;100657.69;1932658;92;28537;-73
2022/09/04 02:31:18;;;;;;;13.88;8.45;;;;;;;11.25;74.94;100657.37;1932359;92;30846;-70
2022/09/04 02:34:55;;;;;;;13.85;9.43;;;;;;;11.22;75.24;100657.50;1953187;90;32796;-74
2022/09/04 02:38:19;;;;;;;13.28;9.35;;;;;;;11.20;75.25;100649.52;1971167;90;29370;-73
2022/09/04 02:41:49;;;;;;;13.98;10.48;;;;;;;11.19;75.47;100653.63;1971234;90;27749;-74
2022/09/04 02:45:17;;;;;;;12.58;9.10;;;;;;;11.18;75.37;100654.56;1970254;90;30038;-73
2022/09/04 02:48:30;;;;;;;13.55;9.45;;;;;;;11.16;75.53;100649.28;2006565;88;31117;-73
2022/09/04 02:51:52;;;;;;;13.85;9.48;;;;;;;11.14;75.65;100653.84;2026221;87;32955;-75
2022/09/04 02:55:25;;;;;;;22.50;9.23;;;;;;;11.12;75.56;100649.02;2039819;87;29131;-74
2022/09/04 02:58:54;;;;;;;9.60;8.28;;;;;;;11.11;75.66;100652.64;2039610;87;27706;-67
2022/09/04 03:02:01;;;;;;;13.53;9.78;;;;;;;11.10;76.08;100652.23;2039407;87;43133;-71
2022/09/04 03:05:25;;;;;;;13.80;9.48;;;;;;;11.07;76.04;100647.01;2039433;87;31076;-74
2022/09/04 03:08:40;;;;;;;12.58;9.25;;;;;;;11.03;76.07;100646.73;2010613;87;33250;-74
2022/09/04 03:12:02;;;;;;;12.43;9.45;;;;;;;11.03;76.24;100648.08;2012337;87;29710;-74
2022/09/04 03:15:28;;;;;;;15.18;9.88;;;;;;;11.04;76.39;100646.69;2039734;87;27673;-74
2022/09/04 03:19:04;;;;;;;13.53;9.30;;;;;;;11.03;76.43;100640.04;2034874;87;28598;-74
2022/09/04 03:22:17;;;;;;;12.73;9.58;;;;;;;11.02;76.31;100646.34;2014954;86;30901;-74
2022/09/04 03:25:33;;;;;;;13.10;9.85;;;;;;;11.01;76.74;100637.89;2012079;88;33636;-73
2022/09/04 03:28:58;;;;;;;14.83;9.83;;;;;;;11.02;77.01;100636.95;2011781;87;30497;-75
2022/09/04 03:32:27;;;;;;;12.20;9.40;;;;;;;11.02;77.00;100637.84;2011903;88;27743;-72
2022/09/04 03:35:45;;;;;;;17.07;9.58;;;;;;;11.03;77.23;100647.63;2012024;88;28585;-73
2022/09/04 03:39:19;;;;;;;13.18;10.23;;;;;;;11.07;76.90;100657.73;2011964;88;31081;-73
2022/09/04 03:42:46;;;;;;;13.70;9.73;;;;;;;11.05;76.89;100646.20;1951726;89;33666;-75
2022/09/04 03:46:02;;;;;;;15.05;9.70;;;;;;;11.05;76.96;100646.20;1951655;91;29711;-73
2022/09/04 03:49:15;;;;;;;13.03;9.63;;;;;;;11.05;76.99;100655.59;1951585;91;27753;-71
2022/09/04 03:52:44;;;;;;;14.03;9.55;;;;;;;11.04;76.89;100654.73;1951760;89;28682;-72
2022/09/04 03:56:11;;;;;;;14.18;9.30;;;;;;;11.05;77.11;100654.25;1951866;91;31860;-73
2022/09/04 03:59:49;;;;;;;16.27;9.65;;;;;;;11.05;76.92;100655.59;1951576;91;33928;-73
2022/09/04 04:02:59;;;;;;;12.70;9.78;;;;;;;11.02;77.03;100653.92;1950949;90;29451;-71
2022/09/04 04:06:12;;;;;;;13.48;9.25;;;;;;;11.02;77.17;100656.61;1951352;89;27770;-72
2022/09/04 04:09:28;;;;;;;15.18;8.95;;;;;;;11.01;77.20;100653.53;1950843;89;29424;-74
2022/09/04 04:13:04;;;;;;;13.05;8.45;;;;;;;10.99;77.42;100651.87;1968917;88;32292;-76
2022/09/04 04:16:42;;;;;;;13.25;9.05;;;;;;;10.98;77.54;100659.51;2012101;88;33332;-74
2022/09/04 04:20:21;;;;;;;13.38;8.95;;;;;;;10.98;77.40;100658.17;1989911;88;29775;-72
2022/09/04 04:23:55;;;;;;;11.83;9.18;;;;;;;11.00;77.58;100663.00;1990221;89;27650;-73
2022/09/04 04:27:27;;;;;;;13.20;8.85;;;;;;;11.01;77.45;100660.23;1989454;88;28705;-74
2022/09/04 04:30:40;;;;;;;13.25;9.48;;;;;;;11.04;77.56;100663.23;1989614;89;31419;-72
2022/09/04 04:34:06;;;;;;;12.45;8.95;;;;;;;11.07;77.67;100663.98;1989366;89;34160;-73
2022/09/04 04:37:20;;;;;;;13.45;9.08;;;;;;;11.10;77.50;100669.66;1990019;89;29490;-72
2022/09/04 04:40:48;;;;;;;12.13;9.40;;;;;;;11.14;77.55;100671.72;1990241;89;27730;-73
2022/09/04 04:44:15;;;;;;;14.55;9.18;;;;;;;11.17;77.60;100678.29;1989607;89;30007;-73
2022/09/04 04:47:45;;;;;;;13.62;9.45;;;;;;;11.20;77.69;100679.50;1990169;89;32049;-72
2022/09/04 04:51:04;;;;;;;14.68;9.43;;;;;;;11.26;77.67;100685.90;2002306;88;33013;-66
2022/09/04 04:54:52;;;;;;;15.00;9.35;;;;;;;11.32;77.68;100695.02;2021187;87;29717;-73
2022/09/04 04:58:43;;;;;;;12.43;9.13;;;;;;;11.40;77.56;100698.23;2022087;88;27697;-72
2022/09/04 05:02:08;;;;;;;15.98;9.38;;;;;;;11.52;77.57;100705.29;2001418;89;29905;-71
2022/09/04 05:05:35;;;;;;;12.00;8.38;;;;;;;11.62;77.57;100708.41;2022462;87;35209;-72
2022/09/04 05:09:01;;;;;;;12.90;8.63;;;;;;;11.68;77.61;100713.01;2016617;87;33025;-68
2022/09/04 05:12:25;;;;;;;10.05;8.05;;;;;;;11.77;77.57;100720.20;2022019;88;34744;-71
2022/09/04 05:15:35;;;;;;;14.23;8.25;;;;;;;11.86;77.53;100717.09;1995067;89;27780;-70
2022/09/04 05:18:51;;;;;;;11.85;8.28;;;;;;;11.96;77.42;100715.70;2034854;86;29859;-71
2022/09/04 05:22:23;;;;;;;10.32;7.85;;;;;;;12.04;77.33;100711.81;2031290;87;31104;-74
2022/09/04 05:25:39;;;;;;;11.75;8.70;;;;;;;12.15;77.31;100714.83;2041734;87;32356;-72
2022/09/04 05:29:14;;;;;;;12.20;8.30;;;;;;;12.29;77.30;100724.89;2042319;87;29754;-72
2022/09/04 05:32:53;;;;;;;11.93;8.15;;;;;;;12.42;77.17;100726.01;2042544;87;27670;-76
2022/09/04 05:36:03;;;;;;;11.55;7.70;;;;;;;12.57;77.23;100719.45;2042234;87;29817;-72
2022/09/04 05:39:10;;;;;;;10.55;8.05;;;;;;;12.70;76.87;100718.36;2038413;87;31071;-75
2022/09/04 05:42:44;;;;;;;10.50;7.22;;;;;;;12.82;76.74;100712.82;2041895;87;34101;-75
2022/09/04 05:46:06;;;;;;;10.35;7.10;;;;;;;12.92;76.56;100721.64;2041522;87;29456;-74
2022/09/04 05:49:42;;;;;;;11.12;7.50;;;;;;;13.05;76.41;100726.39;1968619;89;27789;-74
2022/09/04 05:53:09;;;;;;;10.82;7.53;;;;;;;13.17;76.18;100728.42;1885881;94;29934;-72
2022/09/04 05:56:46;;;;;;;8.68;7.03;;;;;;;13.30;75.94;100740.74;1915132;93;31975;-73
2022/09/04 06:00:07;;;;;;;9.80;7.12;;;;;;;13.45;75.81;100744.44;1916999;90;28506;-70
2022/09/04 06:03:22;;;;;;;8.20;6.20;;;;;;;13.57;75.61;100752.32;1959732;90;30029;-70
2022/09/04 06:06:29;;;;;;;;;;;;;;;13.76;75.56;100754.85;1930726;91;27837;-70
2022/09/04 06:09:51;;;;;;;9.48;7.42;;;;;;;13.96;75.09;100758.25;1944940;91;29061;-71
2022/09/04 06:13:27;;;;;;;9.60;7.08;;;;;;;14.13;75.11;100758.66;1945693;91;30874;-69
2022/09/04 06:16:37;;;;;;;8.50;6.90;;;;;;;14.33;74.88;100766.93;1945664;91;34194;-71
2022/09/04 06:20:10;;;;;;;13.05;7.83;;;;;;;14.54;74.15;100762.11;1941034;90;30277;-70
2022/09/04 06:23:57;;;;;;;12.43;6.62;;;;;;;14.71;73.83;100766.55;1909760;92;27794;-71
2022/09/04 06:27:18;;;;;;;8.58;6.67;;;;;;;14.92;73.16;100761.30;1936022;91;29135;-72
2022/09/04 06:30:20;;;;;;;6.95;6.25;;;;;;;15.12;72.30;100768.16;1935696;92;32193;-71
2022/09/04 06:33:42;;;;;;;9.30;7.33;;;;;;;15.38;72.19;100762.50;1935779;92;32648;-70
2022/09/04 06:37:07;;;;;;;9.50;6.55;;;;;;;15.61;71.78;100760.20;1841499;96;29856;-71
2022/09/04 06:40:37;;;;;;;8.65;6.78;;;;;;;16.00;71.60;100758.61;1841820;96;27820;-71
2022/09/04 06:44:10;;;;;;;7.70;6.03;;;;;;;16.44;71.03;100755.79;1881085;92;29058;-72
2022/09/04 06:47:32;;;;;;;7.67;5.87;;;;;;;17.60;69.95;100759.52;1914172;93;31135;-72
2022/09/04 06:50:55;;;;;;;10.05;6.50;;;;;;;18.15;69.00;100765.09;1899793;93;33553;-71
2022/09/04 06:54:14;;;;;;;8.43;6.25;;;;;;;18.15;69.00;100765.09;1885443;93;29727;-74
2022/09/04 06:57:34;;;;;;;9.40;6.30;;;;;;;18.45;67.22;100764.62;1885951;94;27725;-73
2022/09/04 07:00:56;;;;;;;6.70;5.75;;;;;;;18.46;65.71;100772.29;1885614;94;29496;-74
2022/09/04 07:04:28;;;;;;;7.92;6.03;;;;;;;18.28;65.54;100774.05;1885518;94;31807;-73
2022/09/04 07:08:06;;;;;;;8.15;5.30;;;;;;;18.14;64.53;100781.84;1885436;94;33357;-72
2022/09/04 07:11:30;;;;;;;8.03;5.92;;;;;;;17.92;65.11;100787.95;1885283;94;30633;-72
2022/09/04 07:14:53;;;;;;;7.33;6.05;;;;;;;17.84;64.83;100779.02;1979663;89;27673;-69
2022/09/04 07:18:18;;;;;;;9.75;5.95;;;;;;;17.81;65.28;100789.23;1934796;92;30221;-73
2022/09/04 07:21:50;;;;;;;8.95;5.62;;;;;;;17.74;64.98;100786.95;1927397;91;31453;-72
2022/09/04 07:25:22;;;;;;;9.13;6.12;;;;;;;17.64;64.48;100787.72;1967196;90;33718;-72
2022/09/04 07:29:18;;;;;;;7.47;5.95;;;;;;;17.69;64.90;100785.08;1966721;90;30150;-73
2022/09/04 07:32:36;;;;;;;8.13;5.67;;;;;;;17.90;64.62;100789.90;1967046;90;27758;-72
2022/09/04 07:35:46;;;;;;;6.87;5.83;;;;;;;18.11;63.71;100785.28;1966892;90;29689;-72
2022/09/04 07:39:30;;;;;;;6.45;5.55;;;;;;;18.29;63.74;100787.10;1964224;90;31103;-72
2022/09/04 07:42:47;;;;;;;7.75;6.15;;;;;;;18.45;62.99;100796.33;1966892;90;33363;-70
2022/09/04 07:45:57;;;;;;;6.85;5.75;;;;;;;18.52;62.19;100796.26;1966298;90;29372;-75
2022/09/04 07:49:14;;;;;;;6.50;5.75;;;;;;;18.58;62.24;100788.98;1966518;89;27808;-65
2022/09/04 07:52:44;;;;;;;7.97;5.42;;;;;;;18.87;62.30;100790.47;1966622;90;29628;-68
2022/09/04 07:56:11;;;;;;;8.18;6.50;;;;;;;19.11;62.27;100794.02;1929999;92;31010;-66
2022/09/04 07:59:21;;;;;;;7.08;5.70;;;;;;;19.50;62.21;100783.34;1950378;91;34256;-70
2022/09/04 08:02:43;;;;;;;7.08;5.08;;;;;;;20.04;61.41;100796.70;1966953;90;29254;-72
2022/09/04 08:06:17;;;;;;;8.58;6.53;;;;;;;20.43;59.06;100797.13;1967116;90;27617;-69
2022/09/04 08:09:54;;;;;;;6.90;5.42;;;;;;;20.70;59.56;100801.22;1966778;90;28722;-68
2022/09/04 08:13:26;;;;;;;7.03;4.95;;;;;;;20.88;58.71;100798.84;1966694;89;30884;-72
2022/09/04 08:16:49;;;;;;;6.62;5.42;;;;;;;20.98;56.64;100803.00;1966672;90;33376;-67
2022/09/04 08:20:36;;;;;;;5.95;4.85;;;;;;;20.89;56.72;100801.05;1958970;90;29720;-70
2022/09/04 08:24:04;;;;;;;9.25;5.15;;;;;;;21.15;57.57;100804.26;1940280;91;27670;-69
2022/09/04 08:27:34;;;;;;;6.70;4.90;;;;;;;21.44;56.20;100809.02;1940023;91;29871;-73
2022/09/04 08:30:55;;;;;;;7.45;5.12;;;;;;;21.81;56.03;100820.80;1940392;91;32111;-69
2022/09/04 08:34:26;;;;;;;6.50;5.08;;;;;;;22.13;55.83;100825.74;1939950;91;34132;-67
2022/09/04 08:37:35;;;;;;;5.15;4.72;;;;;;;22.28;55.09;100824.83;1959972;90;29156;-70
2022/09/04 08:41:28;;;;;;;6.03;4.30;;;;;;;22.35;53.73;100829.23;2000688;88;27766;-69
2022/09/04 08:45:04;;;;;;;4.95;4.10;;;;;;;22.20;54.41;100832.88;1960206;90;29071;-69
2022/09/04 08:48:57;;;;;;;7.37;4.95;;;;;;;22.19;53.75;100831.98;2004338;87;31489;-70
2022/09/04 08:52:36;;;;;;;5.67;4.67;;;;;;;21.84;53.30;100838.27;2033139;87;33042;-69
2022/09/04 08:55:55;;;;;;;5.25;4.75;;;;;;;21.50;52.84;100839.00;2033387;87;30428;-71
2022/09/04 08:59:22;;;;;;;5.40;4.90;;;;;;;21.35;53.95;100849.36;2033307;87;27724;-68
2022/09/04 09:02:48;;;;;;;6.03;4.65;;;;;;;21.40;54.14;100843.87;2033525;87;29610;-71
2022/09/04 09:05:55;;;;;;;;;;;;;;;21.30;53.37;100842.95;1988181;87;31135;-64
2022/09/04 09:09:31;;;;;;;5.65;5.00;;;;;;;21.26;54.38;100844.20;1976251;88;34063;-68
2022/09/04 09:12:52;;;;;;;5.25;4.20;;;;;;;21.40;54.45;100846.59;1972571;90;30454;-64
2022/09/04 09:16:08;;;;;;;6.42;4.92;;;;;;;21.49;53.75;100844.08;1968280;89;27800;-69
2022/09/04 09:19:36;;;;;;;5.25;3.85;;;;;;;21.51;53.69;100844.30;1964480;90;28669;-63
2022/09/04 09:23:00;;;;;;;4.53;3.92;;;;;;;21.48;53.26;100855.47;2003032;88;32276;-71
2022/09/04 09:26:27;;;;;;;4.87;4.05;;;;;;;21.57;52.93;100850.23;2002530;87;32932;-63
2022/09/04 09:30:15;;;;;;;6.90;4.87;;;;;;;21.53;52.58;100844.16;1928303;92;29339;-61
2022/09/04 09:33:33;;;;;;;4.67;4.20;;;;;;;21.56;52.75;100847.98;1972147;90;27698;-62
2022/09/04 09:37:27;;;;;;;4.80;4.30;;;;;;;21.61;52.92;100848.97;1986885;89;28891;-63
2022/09/04 09:40:55;;;;;;;4.17;3.80;;;;;;;21.53;52.29;100850.48;1914526;92;32017;-64
2022/09/04 09:44:30;;;;;;;4.05;3.65;;;;;;;21.48;52.35;100853.26;1913339;92;33785;-63
2022/09/04 09:48:04;;;;;;;4.45;4.03;;;;;;;21.34;51.95;100861.27;1907671;91;29699;-64
2022/09/04 09:51:20;;;;;;;4.58;4.15;;;;;;;21.33;52.59;100859.53;1904628;93;27814;-62
2022/09/04 09:55:11;;;;;;;6.12;3.85;;;;;;;21.39;52.17;100861.22;1897013;93;28771;-63
2022/09/04 09:58:21;;;;;;;6.22;3.90;;;;;;;21.30;52.11;100860.67;1896368;93;31136;-63
2022/09/04 10:01:33;;;;;;;4.75;3.87;;;;;;;21.24;52.61;100853.89;1844872;96;33017;-64
2022/09/04 10:04:55;;;;;;;5.12;4.08;;;;;;;21.33;52.45;100862.25;1865966;95;29488;-62
2022/09/04 10:08:01;;;;;;;4.35;3.75;;;;;;;21.33;52.30;100859.53;1872823;95;27726;-63
2022/09/04 10:11:30;;;;;;;5.62;3.65;;;;;;;21.31;51.82;100863.77;1870350;95;28681;-64
2022/09/04 10:14:46;;;;;;;4.58;3.60;;;;;;;21.25;52.30;100850.66;1843238;94;31227;-63
2022/09/04 10:18:18;;;;;;;5.15;4.53;;;;;;;21.23;51.88;100850.80;1876998;93;33372;-64
2022/09/04 10:21:46;;;;;;;4.10;3.75;;;;;;;21.20;52.31;100852.90;1878755;94;30272;-64
2022/09/04 10:25:19;;;;;;;5.70;3.10;;;;;;;21.18;51.98;100850.33;1878461;94;27863;-62
2022/09/04 10:28:43;;;;;;;4.30;3.72;;;;;;;21.19;51.22;100854.78;1878333;94;28723;-62
2022/09/04 10:31:49;;;;;;;;;;;;;;;21.18;51.87;100850.84;1880703;94;31152;-62
2022/09/04 10:35:08;;;;;;;3.98;3.30;;;;;;;21.20;52.00;100852.42;1878927;94;37327;-63
2022/09/04 10:40:34;;;;;;;4.45;3.77;;;;;;;21.18;51.78;100849.47;1917378;89;29438;-61
2022/09/04 10:41:49;;;;;;;3.50;3.20;;;;;;;21.19;52.29;100845.72;1956086;90;27650;-64
2022/09/04 10:45:17;;;;;;;4.10;3.50;;;;;;;21.29;52.13;100864.88;1960433;90;29688;-63
2022/09/04 10:48:59;;;;;;;4.30;3.72;;;;;;;21.27;51.69;100853.23;1960738;90;31421;-62
2022/09/04 10:52:47;;;;;;;3.98;3.00;;;;;;;21.27;51.67;100855.48;1942591;91;33338;-63
2022/09/04 10:56:16;;;;;;;3.20;2.90;;;;;;;21.23;51.51;100849.92;1952550;89;30442;-62
2022/09/04 10:59:44;;;;;;;6.65;4.53;;;;;;;21.33;51.28;100848.62;1981066;89;27670;-62
2022/09/04 11:03:15;;;;;;;5.12;3.62;;;;;;;21.28;51.40;100845.42;1980973;89;29308;-63
2022/09/04 11:06:54;;;;;;;5.25;3.15;;;;;;;21.29;51.76;100841.22;1980517;89;31093;-62
2022/09/04 11:10:03;;;;;;;4.60;3.27;;;;;;;21.31;51.34;100846.53;1980534;89;33439;-63
2022/09/04 11:13:42;;;;;;;3.90;3.20;;;;;;;21.30;51.63;100848.41;1976692;89;30626;-62
2022/09/04 11:16:52;;;;;;;4.65;4.22;;;;;;;21.34;51.57;100851.23;1976478;90;27688;-63
2022/09/04 11:20:26;;;;;;;3.95;3.02;;;;;;;21.35;51.10;100851.58;1975759;90;28797;-62
2022/09/04 11:23:54;;;;;;;4.25;3.55;;;;;;;21.34;51.06;100849.00;1904268;92;31324;-62
2022/09/04 11:27:06;;;;;;;3.45;3.12;;;;;;;21.32;50.65;100845.05;1904574;91;33046;-62
2022/09/04 11:30:37;;;;;;;3.37;3.08;;;;;;;21.31;50.97;100851.50;1904056;93;29374;-63
2022/09/04 11:33:56;;;;;;;3.65;2.95;;;;;;;21.35;51.22;100836.58;1934429;90;27768;-61
2022/09/04 11:37:46;;;;;;;4.80;3.15;;;;;;;21.44;51.56;100836.80;1934366;92;29080;-64
2022/09/04 11:41:27;;;;;;;4.10;3.00;;;;;;;21.51;51.49;100834.77;1934710;92;31412;-64
2022/09/04 11:44:59;;;;;;;4.30;2.80;;;;;;;21.54;51.39;100827.69;1916400;92;34076;-64
2022/09/04 11:48:25;;;;;;;2.92;2.62;;;;;;;21.57;51.01;100829.78;1905560;93;30480;-63
2022/09/04 11:51:41;;;;;;;2.90;2.60;;;;;;;21.62;51.14;100823.43;1905834;93;27956;-62
2022/09/04 11:55:00;;;;;;;4.95;2.80;;;;;;;21.64;50.69;100823.68;1884663;93;29645;-64
2022/09/04 11:58:35;;;;;;;3.85;2.47;;;;;;;21.66;50.92;100823.05;1945710;90;32218;-63
2022/09/04 12:02:04;;;;;;;3.20;2.90;;;;;;;21.75;49.75;100832.28;2004510;88;34938;-62
2022/09/04 12:05:38;;;;;;;2.62;2.42;;;;;;;21.78;50.35;100832.50;2004832;86;29917;-63
2022/09/04 12:09:25;;;;;;;4.97;2.70;;;;;;;21.76;50.43;100824.43;1974125;90;27790;-62
2022/09/04 12:12:48;;;;;;;4.90;2.95;;;;;;;21.76;50.32;100820.85;1950228;90;29221;-63
2022/09/04 12:16:01;;;;;;;3.60;3.12;;;;;;;21.75;50.35;100822.73;1953324;90;32315;-63
2022/09/04 12:19:25;;;;;;;3.52;2.58;;;;;;;21.75;50.45;100824.58;1960498;90;33189;-63
2022/09/04 12:23:05;;;;;;;3.60;3.27;;;;;;;21.79;50.92;100826.05;1953582;89;29422;-63
2022/09/04 12:26:31;;;;;;;4.78;4.17;;;;;;;21.84;50.76;100825.14;1936426;90;27766;-66
2022/09/04 12:30:04;;;;;;;3.52;2.58;;;;;;;21.86;50.81;100821.75;1898397;90;29042;-63
2022/09/04 12:33:35;;;;;;;2.47;2.27;;;;;;;21.90;50.65;100826.45;1926315;92;32299;-62
2022/09/04 12:36:50;;;;;;;3.42;2.50;;;;;;;21.92;50.50;100818.48;1899350;93;33353;-63
2022/09/04 12:40:09;;;;;;;3.67;2.98;;;;;;;21.91;49.98;100825.45;1924358;92;29351;-62
2022/09/04 12:43:18;;;;;;;2.60;2.08;;;;;;;21.85;50.06;100824.99;1902186;91;27733;-64
2022/09/04 12:46:25;;;;;;;4.40;2.02;;;;;;;21.84;49.68;100822.41;1960207;89;30424;-63
2022/09/04 12:49:58;;;;;;;3.70;2.52;;;;;;;21.81;49.93;100830.34;1987650;88;31113;-62
2022/09/04 12:53:34;;;;;;;2.33;2.10;;;;;;;21.83;50.05;100827.50;1988273;89;33410;-64
2022/09/04 12:57:06;;;;;;;1.85;1.75;;;;;;;21.86;49.92;100827.20;1983605;89;29343;-63
2022/09/04 13:00:11;;;;;;;4.78;1.90;;;;;;;21.90;49.74;100838.21;1991780;87;27599;-65
2022/09/04 13:04:00;;;;;;;2.30;1.90;;;;;;;21.91;49.76;100833.13;2002405;88;30092;-63
2022/09/04 13:07:13;;;;;;;2.27;2.08;;;;;;;21.96;49.33;100830.86;2003696;87;31090;-63
2022/09/04 13:10:38;;;;;;;3.20;2.27;;;;;;;22.03;49.82;100827.55;1999348;87;33697;-63
2022/09/04 13:13:57;;;;;;;1.85;1.75;;;;;;;22.09;49.22;100826.50;1998764;87;30691;-61
2022/09/04 13:17:26;;;;;;;2.60;2.40;;;;;;;22.12;49.22;100834.93;1985658;87;27781;-61
2022/09/04 13:21:04;;;;;;;2.70;2.12;;;;;;;22.17;48.84;100827.20;1997745;87;28817;-61
2022/09/04 13:24:18;;;;;;;40.10;22.32;;;;;;;22.23;49.18;100823.89;1966233;88;32422;-60
2022/09/04 13:27:56;;;;;;;7.12;4.55;;;;;;;22.27;48.89;100833.53;1976149;88;32966;-61
2022/09/04 13:31:32;;;;;;;2.80;2.45;;;;;;;22.33;48.88;100835.36;1958128;88;29441;-62
2022/09/04 13:34:40;;;;;;;3.92;2.10;;;;;;;22.49;49.10;100841.17;1975350;88;27802;-61
2022/09/04 13:37:59;;;;;;;2.33;2.08;;;;;;;22.63;48.48;100837.66;1963135;88;29947;-63
2022/09/04 13:41:40;;;;;;;2.90;2.00;;;;;;;22.71;48.37;100844.63;1963189;89;31582;-63
2022/09/04 13:45:11;;;;;;;3.22;2.10;;;;;;;22.78;48.25;100848.53;1951858;89;33452;-66
2022/09/04 13:48:31;;;;;;;2.20;2.00;;;;;;;22.84;48.32;100851.19;1972464;88;29122;-65
2022/09/04 13:51:39;;;;;;;2.05;1.82;;;;;;;22.88;47.99;100850.75;1968413;88;28160;-62
2022/09/04 13:54:47;;;;;;;2.25;2.05;;;;;;;22.92;47.38;100848.59;1954742;90;29847;-63
2022/09/04 13:58:02;;;;;;;1.77;1.67;;;;;;;22.90;47.65;100849.27;1958000;90;32782;-62
2022/09/04 14:01:09;;;;;;;2.80;1.70;;;;;;;22.86;47.09;100845.08;1949836;90;34204;-64
2022/09/04 14:04:30;;;;;;;2.65;2.15;;;;;;;22.86;47.95;100845.94;1951873;90;30217;-62
2022/09/04 14:07:37;;;;;;;2.87;1.50;;;;;;;22.90;46.97;100852.84;1959869;89;27974;-61
2022/09/04 14:11:05;;;;;;;1.98;1.72;;;;;;;22.84;47.19;100860.75;1962460;90;28665;-62
2022/09/04 14:14:54;;;;;;;1.75;1.65;;;;;;;22.84;47.40;100858.87;1961913;90;31104;-63
2022/09/04 14:18:20;;;;;;;1.60;1.50;;;;;;;22.79;46.78;100851.63;1910599;92;34181;-62
2022/09/04 14:22:01;;;;;;;2.00;1.80;;;;;;;22.84;47.40;100851.19;1956840;88;29533;-64
2022/09/04 14:25:17;;;;;;;2.25;1.90;;;;;;;22.85;47.15;100863.84;1946779;90;27717;-63
2022/09/04 14:28:42;;;;;;;1.67;1.57;;;;;;;22.82;47.25;100860.91;1926560;92;29082;-63
2022/09/04 14:32:36;;;;;;;2.37;1.95;;;;;;;22.81;47.33;100859.18;1927452;92;32277;-63
2022/09/04 14:35:57;;;;;;;4.00;1.90;;;;;;;22.82;46.94;100865.48;1959106;90;34149;-62
2022/09/04 14:39:21;;;;;;;2.12;1.70;;;;;;;22.76;47.22;100863.68;1958896;90;30540;-64
2022/09/04 14:42:59;;;;;;;4.35;1.90;;;;;;;22.78;47.29;100857.22;1964437;88;27649;-61
2022/09/04 14:46:44;;;;;;;2.10;1.72;;;;;;;22.79;47.51;100863.04;1968587;88;28574;-62
2022/09/04 14:49:48;;;;;;;5.12;1.57;;;;;;;22.82;47.39;100855.93;1971965;88;31171;-62
2022/09/04 14:52:54;;;;;;;3.25;1.60;;;;;;;22.88;47.35;100861.68;2035120;85;33054;-63
2022/09/04 14:56:10;;;;;;;2.00;1.77;;;;;;;22.91;47.67;100860.03;2040849;85;30396;-65
2022/09/04 14:59:26;;;;;;;3.02;2.00;;;;;;;23.02;47.81;100860.89;2043068;85;28284;-63
2022/09/04 15:02:38;;;;;;;4.00;2.10;;;;;;;23.10;47.64;100862.90;2043343;85;28695;-64
2022/09/04 15:05:55;;;;;;;2.80;1.80;;;;;;;23.15;47.22;100864.70;2043332;85;31061;-64
2022/09/04 15:09:15;;;;;;;1.80;1.70;;;;;;;23.16;47.18;100876.00;2041253;85;33030;-63
2022/09/04 15:12:25;;;;;;;3.45;2.10;;;;;;;23.10;46.73;100875.20;2034324;86;29420;-63
2022/09/04 15:15:46;;;;;;;3.40;2.58;;;;;;;23.02;46.98;100881.38;2042770;85;27737;-64
2022/09/04 15:19:13;;;;;;;2.30;2.10;;;;;;;23.01;47.04;100883.75;2042264;86;29623;-63
2022/09/04 15:22:46;;;;;;;3.22;2.35;;;;;;;22.91;46.76;100876.43;2038119;85;31197;-65
2022/09/04 15:26:03;;;;;;;2.85;2.05;;;;;;;22.86;47.12;100884.70;1956724;90;33092;-63
2022/09/04 15:29:34;;;;;;;2.40;2.05;;;;;;;22.74;47.14;100877.13;1936194;90;29129;-64
2022/09/04 15:32:40;;;;;;;4.72;2.10;;;;;;;22.70;47.41;100871.58;1948939;90;27689;-63
2022/09/04 15:35:41;;;;;;;2.62;2.42;;;;;;;22.61;47.39;100876.02;1949169;90;28866;-62
2022/09/04 15:38:57;;;;;;;9.08;2.47;;;;;;;22.59;47.81;100873.45;1956488;89;31426;-63
2022/09/04 15:41:59;;;;;;;2.85;2.22;;;;;;;22.54;47.82;100864.80;1972590;87;33813;-64
2022/09/04 15:45:10;;;;;;;2.70;2.50;;;;;;;22.48;47.94;100865.38;1957454;89;29426;-62